Hlavní strana
METAR-TAF:

METAR-TAF

Letiště :

San Antonio del Táchira, Venezuela

zeměpisná šířka: 07-51N, zeměpisná délka: 072-27W, výška: 377 m

METAR: chybějící

Čas: 15:32 (19:32 UTC)

Předpověď počasí

Zpráva byla vytvořena před 3 hodinami a 32 minutami, v 16:00 UTC
Předpověď platná od 13 v 18 UTC do 14 v 18 UTC
Jihojihovýchodní vítr 5 kt
Viditelnost 10 km a více
Polojasno ve výšce 1600 ft
Dočasný
od 13 v 18 UTC do 13 v 22 UTC
Jihovýchodní vítr 3 kt
Oblačno až skoro zataženo ve výšce 1600 ft
mrholení

TAF: SVSA 131600Z 1318/1418 15005KT 9999 SCT016 TX32/1319Z TN22/1308Z TEMPO 1318/1322 13003KT 9000- DZ BKN016

Stav a předpovědi počasí z více než 4 000 letišť (zprávy METAR a TAF).

Červené a žluté tečky na mapě představují dostupné meteorologické stanice.

Když kurzor umístíte na tečku, zobrazí se název stanice.

Pak kliknutím zobrazíte stav a předpověď počasí.

Chcete-li změnit mapu, kliknutím na zelené tlačítko se znaménkem +mapu přiblížíte, kliknutím na zelené tlačítko se znaménkem – mapu oddálíte a kliknutím na zelené šipky přejdete na sousední mapy.


METAR-TAF: